Time;durP1;ratioP1;P1;durP2;ratioP2;P2;SDS_P1;SDS_P2;PMS_P1;PMS_P2;Temp;Humidity;BMP_temperature;BMP_pressure;BME280_temperature;BME280_humidity;BME280_pressure;Samples;Min_cycle;Max_cycle;Signal;HPM_P1;HPM_P2
2020/12/10 00:02:14;;;;;;;25.77;19.10;;;6.50;98.00;;;7.71;55.95;100520.00;4897987;28;99699;-61
2020/12/10 00:04:40;;;;;;;26.13;19.70;;;6.60;98.00;;;7.99;55.87;100523.63;4922737;28;96967;-60
2020/12/10 00:07:06;;;;;;;23.77;18.37;;;6.80;98.90;;;7.78;51.96;100524.19;4900762;28;101814;-63
2020/12/10 00:09:33;;;;;;;23.80;18.40;;;6.70;98.20;;;7.71;51.34;100520.88;4919585;28;105168;-60
2020/12/10 00:12:03;;;;;;;19.57;15.27;;;6.60;97.90;;;7.89;52.35;100519.53;4881104;28;101180;-61
2020/12/10 00:14:29;;;;;;;27.70;19.50;;;6.80;98.10;;;7.78;50.23;100516.31;4899517;28;99729;-61
2020/12/10 00:16:55;;;;;;;18.40;14.03;;;6.70;97.70;;;7.95;52.58;100514.09;4898269;28;97498;-60
2020/12/10 00:19:20;;;;;;;24.90;19.27;;;6.80;99.50;;;7.88;48.92;100507.28;4899817;28;101117;-58
2020/12/10 00:21:46;;;;;;;25.93;19.77;;;6.90;97.30;;;8.03;53.32;100517.38;4899256;28;100618;-61
2020/12/10 00:24:13;;;;;;;27.87;20.70;;;6.90;97.90;;;7.92;49.26;100508.91;4897569;28;97460;-60
2020/12/10 00:26:38;;;;;;;25.37;19.17;;;6.90;97.40;;;7.89;50.86;100503.75;4886529;28;97636;-61
2020/12/10 00:29:04;;;;;;;26.23;19.80;;;6.90;97.30;;;7.71;49.26;100502.50;4886144;28;99061;-61
2020/12/10 00:31:30;;;;;;;29.63;22.33;;;6.80;97.00;;;7.52;49.82;100506.47;4897724;28;100751;-61
2020/12/10 00:33:57;;;;;;;26.07;19.67;;;6.70;97.80;;;7.38;50.59;100500.75;4902326;28;104964;-61
2020/12/10 00:36:23;;;;;;;25.37;20.03;;;6.50;97.80;;;7.52;50.62;100498.59;4901498;28;98793;-61
2020/12/10 00:38:49;;;;;;;29.03;20.77;;;6.50;98.20;;;7.49;50.19;100498.69;4881495;28;109814;-60
2020/12/10 00:41:15;;;;;;;25.03;18.87;;;6.60;97.80;;;7.52;51.02;100489.88;4911455;28;99368;-60
2020/12/10 00:43:42;;;;;;;28.87;19.63;;;6.60;98.00;;;7.54;55.37;100485.47;4887466;28;101976;-59
2020/12/10 00:46:08;;;;;;;27.20;20.40;;;6.50;98.00;;;7.54;50.33;100483.69;4903462;28;99772;-57
2020/12/10 00:48:34;;;;;;;29.87;20.97;;;6.60;97.80;;;7.57;49.58;100485.38;4924831;28;99439;-59
2020/12/10 00:51:01;;;;;;;25.70;18.80;;;6.70;97.50;;;7.72;50.85;100479.72;4901201;28;98886;-59
2020/12/10 00:53:29;;;;;;;24.60;19.30;;;6.70;97.40;;;8.17;57.76;100482.84;4918842;28;98459;-57
2020/12/10 00:55:56;;;;;;;24.90;18.63;;;6.80;98.20;;;8.11;49.45;100476.91;4912675;28;96990;-58
2020/12/10 00:58:23;;;;;;;28.47;20.47;;;7.00;96.80;;;7.93;48.42;100473.88;4910264;28;98940;-58
2020/12/10 01:00:51;;;;;;;12.83;11.07;;;6.90;96.80;;;8.06;52.90;100477.88;4882540;28;98147;-60
2020/12/10 01:03:17;;;;;;;29.67;21.10;;;6.90;97.20;;;7.79;48.23;100470.75;4916791;28;98891;-58
2020/12/10 01:05:43;;;;;;;28.17;20.70;;;6.70;96.80;;;8.21;56.15;100473.09;4895903;28;97389;-59
2020/12/10 01:08:08;;;;;;;18.63;13.63;;;6.80;97.80;;;8.26;57.68;100461.56;4890975;28;99303;-59
2020/12/10 01:10:35;;;;;;;24.00;17.00;;;6.90;98.80;;;8.29;57.32;100455.34;4890916;28;98772;-59
2020/12/10 01:13:01;;;;;;;18.87;15.47;;;6.90;98.80;;;8.42;56.16;100456.75;4903150;28;97143;-59
2020/12/10 01:15:27;;;;;;;27.57;20.37;;;7.10;97.20;;;8.49;48.84;100458.28;4896935;28;98446;-59
2020/12/10 01:17:53;;;;;;;14.23;12.03;;;7.30;97.30;;;8.82;56.95;100456.38;4919210;28;99526;-59
2020/12/10 01:20:19;;;;;;;25.83;19.90;;;7.50;99.30;;;9.02;50.53;100453.13;4870629;28;105107;-60
2020/12/10 01:22:45;;;;;;;23.90;18.00;;;7.80;97.00;;;9.13;53.53;100445.75;4920624;28;99104;-59
2020/12/10 01:25:11;;;;;;;22.90;18.40;;;7.90;96.20;;;9.27;48.39;100444.44;4909003;28;98534;-59
2020/12/10 01:27:37;;;;;;;9.50;8.30;;;8.10;96.20;;;9.44;55.08;100444.72;4904796;28;101603;-59
2020/12/10 01:30:05;;;;;;;24.00;18.20;;;8.00;97.40;;;9.53;53.40;100444.38;4901163;28;99061;-59
2020/12/10 01:32:31;;;;;;;21.33;16.50;;;8.10;95.40;;;9.69;49.66;100444.69;4893412;28;106166;-59
2020/12/10 01:34:57;;;;;;;16.80;13.60;;;8.40;96.80;;;9.72;53.85;100440.19;4901369;28;97627;-59
2020/12/10 01:37:23;;;;;;;16.90;13.77;;;8.30;98.00;;;9.74;53.23;100433.09;4869388;28;101406;-59
2020/12/10 01:39:49;;;;;;;10.80;8.60;;;8.30;95.80;;;10.14;54.06;100426.38;4895014;28;96980;-58
2020/12/10 01:42:15;;;;;;;22.17;17.60;;;8.90;98.20;;;10.16;51.86;100435.09;4901588;28;97924;-62
2020/12/10 01:44:42;;;;;;;14.97;12.63;;;9.00;95.00;;;10.04;52.86;100425.84;4899792;28;97757;-59
2020/12/10 01:47:08;;;;;;;14.43;11.50;;;8.70;96.00;;;10.38;52.68;100425.47;4907129;28;98690;-59
2020/12/10 01:49:38;;;;;;;17.27;14.17;;;9.10;98.20;;;10.28;50.63;100424.13;4897926;28;98297;-58
2020/12/10 01:52:06;;;;;;;19.73;16.40;;;9.00;94.90;;;10.26;50.46;100423.28;4887939;28;118515;-60
2020/12/10 01:54:35;;;;;;;16.13;13.90;;;8.90;94.40;;;10.16;52.43;100424.53;4891098;28;97860;-59
2020/12/10 01:57:01;;;;;;;14.47;12.30;;;8.70;95.90;;;10.14;46.55;100421.09;4897814;28;100030;-58
2020/12/10 01:59:28;;;;;;;15.10;12.30;;;8.80;94.60;;;10.19;49.76;100419.16;4912253;28;100007;-59
2020/12/10 02:01:54;;;;;;;28.30;20.13;;;8.80;95.90;;;9.95;48.50;100415.63;4901553;28;98150;-59
2020/12/10 02:04:32;;;;;;;26.33;19.90;;;8.50;94.50;;;9.65;51.06;100412.34;4897267;28;98076;-59
2020/12/10 02:06:59;;;;;;;26.10;20.60;;;8.20;94.50;;;9.42;49.56;100404.41;4899464;28;103793;-59
2020/12/10 02:09:25;;;;;;;28.87;20.80;;;8.00;95.10;;;9.14;46.54;100410.63;4916165;28;102096;-59
2020/12/10 02:11:52;;;;;;;26.03;20.47;;;7.80;94.90;;;8.88;46.00;100414.09;4897941;28;97580;-59
2020/12/10 02:14:19;;;;;;;24.17;19.67;;;7.70;95.20;;;8.61;46.43;100405.31;4910086;28;100875;-58
2020/12/10 02:16:45;;;;;;;27.70;21.30;;;7.50;95.30;;;8.27;47.49;100409.88;4912962;28;97587;-59
2020/12/10 02:19:11;;;;;;;28.03;20.77;;;7.20;96.20;;;8.06;47.89;100411.34;4896430;28;100133;-58
2020/12/10 02:21:37;;;;;;;27.50;21.23;;;7.00;96.40;;;7.83;48.71;100414.66;4922840;28;96823;-58
2020/12/10 02:24:03;;;;;;;28.93;21.90;;;6.80;96.80;;;7.61;48.87;100416.13;4910387;28;97440;-58
2020/12/10 02:26:29;;;;;;;27.77;20.90;;;6.70;97.10;;;7.49;48.87;100419.09;4915208;28;97789;-57
2020/12/10 02:29:02;;;;;;;28.60;21.80;;;6.60;96.70;;;7.22;49.44;100405.78;4910909;28;99971;-59
2020/12/10 02:31:31;;;;;;;29.50;21.00;;;6.40;97.40;;;7.20;54.31;100412.84;4906686;28;97501;-56
2020/12/10 02:34:06;;;;;;;26.87;20.47;;;6.20;97.90;;;7.15;51.68;100398.97;4902099;28;97216;-58
2020/12/10 02:36:34;;;;;;;26.73;20.50;;;6.20;98.30;;;7.01;50.32;100391.47;4907640;28;99591;-58
2020/12/10 02:39:01;;;;;;;30.67;21.00;;;6.20;97.90;;;6.92;50.70;100401.31;4917503;28;115936;-58
2020/12/10 02:41:27;;;;;;;26.93;20.60;;;6.00;98.30;;;6.78;50.67;100397.25;4930053;28;97176;-58
2020/12/10 02:43:52;;;;;;;29.70;21.23;;;5.90;98.30;;;6.65;50.95;100387.97;4923082;28;101304;-58
2020/12/10 02:46:19;;;;;;;31.33;22.23;;;5.90;98.50;;;6.55;52.00;100389.09;4909200;28;97516;-58
2020/12/10 02:48:45;;;;;;;27.03;20.07;;;5.80;99.00;;;6.51;51.74;100384.84;4932801;28;97097;-58
2020/12/10 02:51:11;;;;;;;27.60;20.03;;;5.80;98.90;;;6.47;52.64;100380.53;4895883;28;96976;-58
2020/12/10 02:53:39;;;;;;;26.17;20.43;;;5.70;98.70;;;6.44;52.38;100375.38;4914764;28;97193;-58
2020/12/10 02:56:15;;;;;;;28.63;21.27;;;5.80;98.90;;;6.33;51.48;100367.75;4895845;28;98915;-58
2020/12/10 02:58:43;;;;;;;29.73;22.00;;;5.70;98.70;;;6.25;51.71;100370.56;4928219;28;98161;-58
2020/12/10 03:01:09;;;;;;;28.07;20.47;;;5.60;98.70;;;6.18;52.08;100366.34;4903751;28;112664;-58
2020/12/10 03:03:37;;;;;;;30.63;21.13;;;5.60;99.00;;;6.20;51.76;100369.78;4916108;28;97597;-58
2020/12/10 03:06:08;;;;;;;28.23;20.97;;;5.60;98.70;;;6.19;51.89;100360.22;4893709;28;97600;-58
2020/12/10 03:08:36;;;;;;;26.67;19.80;;;5.60;99.00;;;6.19;53.24;100362.84;4918299;28;98981;-57
2020/12/10 03:11:05;;;;;;;27.43;20.53;;;5.50;99.30;;;6.39;54.81;100365.03;4901714;28;97002;-58
2020/12/10 03:13:31;;;;;;;28.50;20.33;;;5.60;99.30;;;6.45;54.68;100358.75;4917371;28;97072;-58
2020/12/10 03:15:57;;;;;;;26.80;20.13;;;5.70;98.80;;;6.69;54.01;100358.19;4913365;28;99896;-57
2020/12/10 03:18:25;;;;;;;28.20;20.50;;;5.80;98.90;;;6.86;55.92;100356.00;4920671;28;99750;-58
2020/12/10 03:20:51;;;;;;;30.57;21.20;;;6.00;98.50;;;6.91;51.38;100347.16;4921391;28;97118;-57
2020/12/10 03:23:17;;;;;;;29.73;21.70;;;6.00;98.00;;;7.02;54.95;100351.22;4909167;28;96851;-58
2020/12/10 03:25:43;;;;;;;29.87;21.90;;;6.10;98.20;;;7.04;50.18;100340.69;4928566;28;99445;-56
2020/12/10 03:28:10;;;;;;;27.03;21.50;;;6.20;97.70;;;6.89;50.38;100336.69;4918512;28;100953;-58
2020/12/10 03:30:36;;;;;;;30.00;21.07;;;6.10;97.80;;;6.90;52.30;100334.94;4909113;28;103093;-59
2020/12/10 03:33:02;;;;;;;28.90;21.60;;;6.00;98.30;;;6.91;50.69;100336.66;4911849;28;97989;-58
2020/12/10 03:35:28;;;;;;;29.67;21.47;;;6.00;98.20;;;6.80;52.24;100335.19;4920162;28;100072;-57
2020/12/10 03:37:54;;;;;;;27.63;20.77;;;5.90;98.30;;;6.75;51.89;100337.06;4900133;28;108795;-58
2020/12/10 03:40:20;;;;;;;27.03;20.83;;;5.90;98.40;;;7.02;55.00;100337.25;4924943;28;96830;-56
2020/12/10 03:42:46;;;;;;;28.07;21.80;;;6.00;98.40;;;6.83;50.19;100329.00;4910580;28;97233;-58
2020/12/10 03:45:12;;;;;;;28.13;20.83;;;5.90;97.60;;;7.01;54.72;100317.19;4930679;28;115472;-59
2020/12/10 03:47:38;;;;;;;27.93;20.90;;;6.00;98.50;;;6.88;50.88;100323.63;4898679;28;98852;-57
2020/12/10 03:50:04;;;;;;;30.67;23.13;;;6.00;98.00;;;6.81;51.33;100320.31;4925929;28;96771;-59
2020/12/10 03:52:30;;;;;;;28.90;21.97;;;5.90;98.30;;;6.66;50.34;100316.34;4896951;28;97187;-58
2020/12/10 03:54:56;;;;;;;30.77;22.90;;;5.80;98.10;;;6.67;51.97;100315.44;4939991;28;97434;-58
2020/12/10 03:57:22;;;;;;;29.67;22.20;;;5.80;98.90;;;6.66;55.08;100316.34;4926941;28;97090;-58
2020/12/10 03:59:48;;;;;;;28.03;21.97;;;5.70;98.70;;;6.62;53.59;100319.91;4925257;28;97195;-55
2020/12/10 04:02:14;;;;;;;32.33;23.97;;;5.70;98.50;;;6.50;51.11;100325.44;4899471;28;97002;-58
2020/12/10 04:04:39;;;;;;;27.43;21.80;;;5.70;98.30;;;6.50;52.22;100326.31;4911835;28;101701;-55
2020/12/10 04:07:05;;;;;;;27.03;21.47;;;5.60;98.90;;;6.49;51.32;100321.09;4907600;28;98521;-58
2020/12/10 04:09:31;;;;;;;30.43;22.77;;;5.70;98.50;;;6.61;56.03;100328.66;4894036;28;97083;-57
2020/12/10 04:11:58;;;;;;;31.30;22.47;;;5.60;98.80;;;6.61;53.54;100318.19;4925505;28;109275;-57
2020/12/10 04:14:23;;;;;;;31.43;23.63;;;5.70;99.20;;;6.60;53.71;100311.22;4913351;28;97871;-59
2020/12/10 04:16:49;;;;;;;28.80;22.90;;;5.70;99.10;;;6.72;53.22;100318.78;4937503;28;97200;-58
2020/12/10 04:19:15;;;;;;;28.20;23.03;;;5.80;98.40;;;6.76;50.33;100315.19;4906669;28;107098;-56
2020/12/10 04:21:41;;;;;;;27.83;21.23;;;5.90;98.40;;;7.12;54.65;100315.13;4926487;28;97617;-58
2020/12/10 04:24:06;;;;;;;30.40;22.63;;;6.00;98.70;;;6.94;50.50;100310.34;4910349;28;100376;-59
2020/12/10 04:26:33;;;;;;;29.63;22.97;;;6.00;98.20;;;6.87;50.71;100309.66;4894873;28;99122;-57
2020/12/10 04:28:59;;;;;;;30.63;23.23;;;5.90;98.30;;;7.26;56.96;100302.50;4912520;28;97091;-58
2020/12/10 04:31:24;;;;;;;30.07;22.97;;;6.10;98.70;;;7.19;50.69;100305.31;4906946;28;97334;-56
2020/12/10 04:33:50;;;;;;;28.17;21.60;;;6.20;97.80;;;7.18;51.21;100300.97;4910192;28;99943;-59
2020/12/10 04:36:16;;;;;;;30.43;22.77;;;6.20;97.80;;;7.30;51.53;100304.13;4919922;28;97887;-59
2020/12/10 04:38:42;;;;;;;30.70;24.17;;;6.30;97.90;;;7.11;50.45;100297.69;4923263;28;97386;-58
2020/12/10 04:41:09;;;;;;;31.50;23.60;;;6.20;97.60;;;7.02;50.14;100297.91;4909025;28;101127;-58
2020/12/10 04:43:35;;;;;;;28.77;23.10;;;6.10;97.70;;;6.81;49.69;100300.22;4909609;28;98847;-58
2020/12/10 04:46:04;;;;;;;30.03;23.87;;;6.00;97.40;;;6.61;49.79;100291.97;4908411;28;99778;-58
2020/12/10 04:48:35;;;;;;;30.93;23.47;;;5.80;97.80;;;6.47;50.89;100300.19;4916065;28;97548;-58
2020/12/10 04:51:06;;;;;;;32.07;24.07;;;5.70;98.30;;;6.29;50.92;100300.63;4911554;28;102672;-59
2020/12/10 04:53:33;;;;;;;31.83;23.10;;;5.60;98.30;;;6.19;50.92;100299.97;4935863;28;97666;-58
2020/12/10 04:56:06;;;;;;;33.73;24.63;;;5.50;98.40;;;6.19;53.70;100294.75;4923977;28;97176;-59
2020/12/10 04:58:33;;;;;;;29.03;22.43;;;5.40;98.80;;;6.06;51.61;100292.44;4934985;28;96997;-57
2020/12/10 05:01:03;;;;;;;32.03;23.30;;;5.30;98.70;;;6.02;52.24;100291.66;4916186;28;96815;-58
2020/12/10 05:03:30;;;;;;;30.50;22.97;;;5.30;98.90;;;5.95;51.79;100295.31;4902416;28;97249;-56
2020/12/10 05:06:09;;;;;;;28.67;23.10;;;5.20;99.10;;;5.94;51.44;100283.13;4893091;28;96676;-57
2020/12/10 05:08:36;;;;;;;30.50;23.87;;;5.20;98.70;;;5.80;51.86;100286.00;4924946;28;96764;-59
2020/12/10 05:11:02;;;;;;;32.10;23.07;;;5.10;99.10;;;5.67;51.94;100292.41;4919337;28;96898;-57
2020/12/10 05:13:28;;;;;;;32.90;24.77;;;5.00;99.00;;;5.62;52.33;100287.25;4922348;28;99323;-56
2020/12/10 05:15:53;;;;;;;31.53;23.13;;;5.00;99.50;;;5.57;52.97;100289.13;4930386;28;99879;-58
2020/12/10 05:18:20;;;;;;;29.83;21.97;;;4.90;99.50;;;5.46;52.00;100291.09;4895618;28;97445;-58
2020/12/10 05:20:57;;;;;;;30.17;23.17;;;4.80;99.10;;;5.40;53.27;100286.00;4905414;28;97103;-59
2020/12/10 05:23:37;;;;;;;29.73;21.53;;;4.70;99.70;;;5.35;52.85;100282.59;4912252;28;97555;-57
2020/12/10 05:26:04;;;;;;;28.47;21.60;;;4.70;99.60;;;5.30;53.04;100287.91;4926744;28;99496;-57
2020/12/10 05:28:50;;;;;;;31.90;22.37;;;4.60;99.60;;;5.31;52.87;100289.63;4901684;28;96996;-58
2020/12/10 05:31:19;;;;;;;28.97;22.00;;;4.60;99.80;;;5.35;53.06;100287.81;4913133;28;97448;-60
2020/12/10 05:34:01;;;;;;;32.60;22.53;;;4.70;99.90;;;5.30;52.54;100287.06;4909766;28;101462;-56
2020/12/10 05:36:29;;;;;;;30.90;22.20;;;4.70;99.20;;;5.21;53.37;100287.25;4932527;28;97032;-59
2020/12/10 05:39:00;;;;;;;31.83;21.47;;;4.60;99.90;;;5.20;52.83;100288.97;4910260;28;97901;-56
2020/12/10 05:41:26;;;;;;;32.27;23.17;;;4.60;99.70;;;5.31;54.35;100287.03;4908804;28;97344;-60
2020/12/10 05:43:52;;;;;;;31.33;22.63;;;4.60;99.80;;;5.41;53.83;100287.72;4904666;28;101409;-58
2020/12/10 05:46:25;;;;;;;31.53;23.27;;;4.70;99.20;;;5.43;52.24;100288.53;4935930;28;97127;-59
2020/12/10 05:48:52;;;;;;;32.70;23.43;;;4.80;98.90;;;5.41;51.47;100285.09;4904662;28;111367;-60
2020/12/10 05:51:23;;;;;;;34.30;24.07;;;4.80;98.90;;;5.35;52.73;100282.59;4947319;28;97370;-59
2020/12/10 05:53:50;;;;;;;30.87;22.83;;;4.70;99.40;;;5.27;51.90;100284.50;4900214;28;98921;-60
2020/12/10 05:56:19;;;;;;;31.13;22.37;;;4.70;99.00;;;5.24;52.04;100287.19;4924860;28;100524;-59
2020/12/10 05:58:54;;;;;;;30.43;22.90;;;4.60;99.20;;;5.22;52.17;100281.13;4925661;28;97513;-60
2020/12/10 06:01:34;;;;;;;32.20;23.20;;;4.60;99.10;;;5.25;52.55;100288.91;4934976;28;96970;-59
2020/12/10 06:04:03;;;;;;;27.40;22.20;;;4.60;99.30;;;5.31;52.56;100283.56;4901845;28;99834;-58
2020/12/10 06:06:30;;;;;;;29.10;22.33;;;4.70;99.10;;;5.38;54.40;100290.41;4923190;28;97358;-59
2020/12/10 06:09:03;;;;;;;29.70;22.13;;;4.70;99.10;;;5.41;52.84;100292.09;4910512;28;96911;-60
2020/12/10 06:11:31;;;;;;;31.73;22.90;;;4.70;99.30;;;5.40;52.49;100293.84;4897907;28;108553;-59
2020/12/10 06:14:07;;;;;;;30.23;22.57;;;4.80;99.20;;;5.35;52.57;100293.94;4928541;28;97592;-59
2020/12/10 06:16:34;;;;;;;27.13;21.50;;;4.70;99.40;;;5.36;52.51;100289.56;4921080;28;99695;-59
2020/12/10 06:19:03;;;;;;;29.40;22.70;;;4.70;99.20;;;5.25;51.90;100291.53;4919289;28;98415;-59
2020/12/10 06:21:38;;;;;;;29.33;21.93;;;4.60;99.20;;;5.11;52.60;100291.78;4906107;28;96851;-58
2020/12/10 06:24:25;;;;;;;30.03;22.83;;;4.50;99.50;;;5.05;53.26;100300.59;4917569;28;97205;-59
2020/12/10 06:26:56;;;;;;;30.07;22.27;;;4.50;99.90;;;4.98;52.66;100299.00;4918305;28;106965;-59
2020/12/10 06:29:33;;;;;;;30.53;22.57;;;4.40;99.50;;;4.94;53.83;100302.56;4922032;28;97236;-59
2020/12/10 06:32:18;;;;;;;30.37;21.60;;;4.40;99.90;;;4.98;53.21;100309.47;4897912;28;96989;-58
2020/12/10 06:34:51;;;;;;;29.43;21.67;;;4.40;99.80;;;4.96;53.03;100305.16;4916544;28;103680;-58
2020/12/10 06:37:19;;;;;;;29.73;22.13;;;4.40;99.80;;;5.00;53.08;100318.13;4919156;28;97015;-62
2020/12/10 06:39:48;;;;;;;30.30;22.57;;;4.40;99.90;;;5.05;52.76;100313.66;4914855;28;97327;-59
2020/12/10 06:42:14;;;;;;;29.00;21.03;;;4.40;99.90;;;5.17;52.45;100306.50;4923863;28;106777;-59
2020/12/10 06:44:40;;;;;;;29.50;21.63;;;4.50;99.50;;;5.29;54.79;100301.03;4926225;28;98937;-59
2020/12/10 06:47:06;;;;;;;31.77;21.60;;;4.60;99.50;;;5.34;52.06;100296.56;4925606;28;111385;-59
2020/12/10 06:49:35;;;;;;;31.00;23.27;;;4.60;99.20;;;5.40;52.38;100296.44;4910293;28;97147;-60
2020/12/10 06:52:27;;;;;;;29.03;21.43;;;4.60;99.30;;;5.66;54.81;100299.41;4886624;28;103294;-59
2020/12/10 06:55:11;;;;;;;27.73;20.60;;;4.80;99.70;;;5.64;52.58;100290.72;4915764;28;98996;-59
2020/12/10 06:58:04;;;;;;;29.03;21.53;;;4.80;99.20;;;5.80;51.78;100300.84;4898345;28;99401;-63
2020/12/10 07:00:47;;;;;;;28.17;21.20;;;4.90;99.10;;;5.87;52.10;100297.19;4933469;28;97212;-56
2020/12/10 07:03:30;;;;;;;29.03;21.70;;;4.90;99.20;;;6.09;56.28;100308.97;4901181;28;96850;-59
2020/12/10 07:05:56;;;;;;;27.47;20.57;;;5.00;99.40;;;6.02;52.52;100307.38;4911004;28;100139;-59
2020/12/10 07:08:22;;;;;;;25.07;20.00;;;5.10;99.00;;;6.19;51.81;100304.34;4896162;28;99964;-59
2020/12/10 07:10:51;;;;;;;26.37;19.93;;;5.20;99.00;;;6.49;53.18;100303.63;4906573;28;96787;-59
2020/12/10 07:13:30;;;;;;;28.10;20.80;;;5.40;98.90;;;6.69;57.12;100304.91;4897430;28;97044;-59
2020/12/10 07:15:56;;;;;;;26.23;19.70;;;5.40;98.50;;;6.79;58.09;100312.47;4919488;28;99674;-62
2020/12/10 07:18:22;;;;;;;27.10;20.73;;;5.50;98.70;;;6.98;57.65;100317.25;4916636;28;102297;-59
2020/12/10 07:20:48;;;;;;;27.43;20.37;;;5.60;99.00;;;7.15;55.58;100313.28;4950688;28;97821;-59
2020/12/10 07:23:14;;;;;;;24.70;19.83;;;5.80;99.10;;;7.07;54.10;100317.00;4911250;28;103217;-60
2020/12/10 07:25:40;;;;;;;27.20;20.60;;;5.80;98.10;;;6.86;51.35;100318.44;4919581;28;99368;-60
2020/12/10 07:28:06;;;;;;;29.07;22.33;;;5.80;98.10;;;6.73;51.73;100323.13;4909619;28;100874;-59
2020/12/10 07:30:32;;;;;;;26.97;20.57;;;5.60;98.30;;;6.53;50.51;100315.78;4929090;28;97221;-59
2020/12/10 07:33:04;;;;;;;26.87;21.07;;;5.50;98.30;;;6.33;50.22;100317.13;4925122;28;96967;-59
2020/12/10 07:35:35;;;;;;;29.53;22.10;;;5.40;98.50;;;6.15;51.16;100311.44;4916187;28;100303;-58
2020/12/10 07:38:13;;;;;;;30.87;21.77;;;5.30;98.90;;;5.99;50.67;100306.56;4915896;28;97214;-57
2020/12/10 07:40:40;;;;;;;29.33;22.03;;;5.20;98.40;;;5.86;52.12;100311.19;4913157;28;97031;-59
2020/12/10 07:43:08;;;;;;;32.13;22.57;;;5.10;99.30;;;5.81;51.71;100307.81;4917335;28;97271;-59
2020/12/10 07:45:36;;;;;;;29.17;22.50;;;5.00;99.10;;;5.67;51.43;100306.34;4915577;28;100015;-59
2020/12/10 07:48:07;;;;;;;28.33;21.10;;;4.90;99.00;;;5.63;52.26;100309.91;4934308;28;97963;-59
2020/12/10 07:50:38;;;;;;;28.30;21.20;;;4.90;99.30;;;5.60;52.39;100304.75;4914671;28;98554;-58
2020/12/10 07:53:07;;;;;;;30.40;22.70;;;4.90;99.30;;;5.54;52.63;100304.88;4907378;28;97110;-59
2020/12/10 07:55:50;;;;;;;28.83;21.80;;;4.90;99.50;;;5.47;52.55;100307.63;4894157;28;100063;-59
2020/12/10 07:58:46;;;;;;;31.07;21.47;;;4.80;99.50;;;5.48;53.30;100305.00;4921105;28;96799;-59
2020/12/10 08:01:13;;;;;;;27.03;20.77;;;4.80;99.90;;;5.32;52.75;100311.41;4892503;28;98529;-57
2020/12/10 08:03:52;;;;;;;28.97;21.23;;;4.70;99.70;;;5.22;53.52;100315.13;4933787;28;99594;-58
2020/12/10 08:06:18;;;;;;;31.43;22.43;;;4.60;99.90;;;5.17;53.95;100309.09;4888369;28;101913;-59
2020/12/10 08:08:49;;;;;;;26.57;20.93;;;4.60;99.90;;;5.13;53.26;100307.44;4912090;28;99926;-59
2020/12/10 08:11:20;;;;;;;25.77;20.93;;;4.60;99.90;;;5.12;53.23;100310.97;4895412;28;96932;-59
2020/12/10 08:13:56;;;;;;;33.53;22.30;;;4.60;99.90;;;5.09;53.49;100306.66;4915846;28;96768;-58
2020/12/10 08:16:23;;;;;;;28.20;21.03;;;4.50;99.90;;;5.04;53.87;100314.56;4906130;28;101667;-59
2020/12/10 08:18:49;;;;;;;27.13;20.33;;;4.50;99.90;;;5.04;53.28;100313.69;4906557;28;99042;-59
2020/12/10 08:21:49;;;;;;;28.73;21.63;;;4.50;99.90;;;5.15;54.08;100321.34;4900599;28;103885;-59
2020/12/10 08:24:47;;;;;;;28.13;21.23;;;4.60;99.90;;;5.15;54.01;100321.34;4842670;28;98677;-59
2020/12/10 08:27:15;;;;;;;29.87;21.90;;;4.60;99.90;;;5.12;54.18;100326.66;4890349;28;98676;-58
2020/12/10 08:30:07;;;;;;;25.43;20.13;;;4.60;99.90;;;5.18;54.32;100326.50;4912862;28;98804;-59
2020/12/10 08:32:33;;;;;;;28.87;22.10;;;4.60;99.90;;;5.14;54.69;100320.50;4876561;28;97828;-59
2020/12/10 08:35:08;;;;;;;29.00;22.40;;;4.60;99.90;;;5.16;54.84;100317.84;4931076;28;97851;-59
2020/12/10 08:37:42;;;;;;;30.27;22.77;;;4.70;99.90;;;5.19;55.27;100312.53;4891095;28;100471;-59
2020/12/10 08:40:09;;;;;;;29.07;21.20;;;4.70;99.90;;;5.22;55.10;100316.00;4899195;28;99848;-59
2020/12/10 08:42:35;;;;;;;29.67;22.17;;;4.70;99.90;;;5.30;55.69;100321.06;4879761;28;104375;-59
2020/12/10 08:45:01;;;;;;;29.57;22.53;;;4.70;99.90;;;5.38;55.31;100321.78;4898200;28;97434;-59
2020/12/10 08:47:32;;;;;;;27.07;20.07;;;4.80;99.90;;;5.49;54.76;100317.19;4889462;28;100781;-58
2020/12/10 08:50:23;;;;;;;32.23;23.60;;;4.90;99.90;;;5.53;54.73;100318.84;4914710;28;99725;-59
2020/12/10 08:52:58;;;;;;;30.50;22.63;;;4.90;99.90;;;5.52;54.85;100319.75;4874258;28;98600;-59
2020/12/10 08:55:53;;;;;;;30.60;22.37;;;4.90;99.90;;;5.58;55.62;100322.22;4919743;28;97547;-59
2020/12/10 08:58:28;;;;;;;27.23;21.53;;;5.00;99.90;;;5.62;55.45;100307.31;4877260;28;103392;-59
2020/12/10 09:00:56;;;;;;;29.00;21.23;;;5.00;99.90;;;5.71;55.28;100306.28;4889098;28;100213;-59
2020/12/10 09:03:24;;;;;;;28.13;22.17;;;5.10;99.90;;;5.72;54.97;100311.47;4881665;28;98645;-58
2020/12/10 09:05:50;;;;;;;28.30;21.23;;;5.20;99.90;;;5.88;56.90;100307.63;4885302;28;102510;-59
2020/12/10 09:08:17;;;;;;;29.00;22.00;;;5.30;99.90;;;5.83;54.65;100321.72;4967468;23;100753;-61
2020/12/10 09:10:43;;;;;;;32.40;22.63;;;5.30;99.90;;;5.92;54.42;100316.31;4913099;28;98978;-59
2020/12/10 09:13:09;;;;;;;29.87;22.17;;;5.40;99.90;;;5.94;56.41;100306.69;4914465;28;99201;-58
2020/12/10 09:15:37;;;;;;;31.00;22.97;;;5.40;99.90;;;5.96;55.21;100304.91;4901693;28;108633;-58
2020/12/10 09:18:03;;;;;;;29.47;21.83;;;5.40;99.90;;;6.10;55.68;100305.44;4910903;28;99731;-60
2020/12/10 09:20:29;;;;;;;32.20;22.53;;;5.50;99.90;;;6.08;54.88;100312.47;4887862;28;105884;-60
2020/12/10 09:22:54;;;;;;;31.87;22.70;;;5.50;99.90;;;6.19;54.63;100320.94;4911902;28;96925;-60
2020/12/10 09:25:20;;;;;;;29.87;22.60;;;5.60;99.90;;;6.33;56.10;100317.13;4900707;28;96998;-59
2020/12/10 09:27:46;;;;;;;29.40;22.03;;;5.70;99.90;;;6.59;54.03;100317.38;4915093;28;100011;-58
2020/12/10 09:30:13;;;;;;;28.57;21.07;;;5.90;99.90;;;6.95;54.88;100317.34;4895844;28;99009;-63
2020/12/10 09:32:41;;;;;;;25.93;19.87;;;6.20;99.90;;;7.13;57.56;100316.84;4918568;28;97804;-61
2020/12/10 09:35:11;;;;;;;31.30;21.63;;;6.30;99.90;;;7.10;52.73;100316.94;4903831;28;98076;-60
2020/12/10 09:37:39;;;;;;;30.30;21.33;;;6.40;99.90;;;7.08;52.71;100313.47;4915561;28;99006;-60
2020/12/10 09:40:08;;;;;;;22.20;17.20;;;6.40;99.80;;;7.41;54.17;100317.81;4904933;28;98201;-61
2020/12/10 09:42:52;;;;;;;28.47;20.73;;;6.50;99.90;;;7.46;53.13;100315.06;4892398;28;97460;-60
2020/12/10 09:45:19;;;;;;;16.30;12.37;;;6.70;99.60;;;7.46;54.06;100315.91;4923502;28;101269;-60
2020/12/10 09:47:51;;;;;;;26.40;19.63;;;6.70;99.90;;;7.07;52.95;100319.63;4918133;28;99734;-56
2020/12/10 09:50:23;;;;;;;26.37;20.70;;;6.40;99.90;;;6.88;52.79;100326.25;4907853;28;97686;-56
2020/12/10 09:52:56;;;;;;;28.93;21.27;;;6.30;99.80;;;6.66;53.73;100320.72;4900395;28;97125;-60
2020/12/10 09:58:04;;;;;;;25.50;19.80;;;5.90;99.90;;;6.16;54.91;100313.16;4896594;28;98281;-58
2020/12/10 10:00:29;;;;;;;24.20;19.17;;;5.70;99.90;;;6.17;55.82;100314.88;4913448;28;105193;-58
2020/12/10 10:02:55;;;;;;;24.07;18.10;;;5.80;99.90;;;6.25;54.63;100305.09;4901512;28;97418;-59
2020/12/10 10:05:21;;;;;;;28.00;18.93;;;5.90;99.90;;;6.29;54.84;100305.00;4920727;28;97259;-59
2020/12/10 10:07:47;;;;;;;25.83;18.97;;;6.00;99.90;;;6.28;55.27;100313.75;4894419;28;111721;-58
2020/12/10 10:10:12;;;;;;;27.20;18.37;;;6.00;99.90;;;6.28;54.41;100309.38;4919478;28;100262;-59
2020/12/10 10:12:38;;;;;;;23.80;17.90;;;6.00;99.90;;;6.28;54.99;100308.53;4898645;28;98321;-59
2020/12/10 10:15:04;;;;;;;22.40;17.00;;;6.00;99.90;;;6.39;54.77;100301.28;4911487;28;104195;-59
2020/12/10 10:17:30;;;;;;;24.43;16.97;;;6.10;99.90;;;6.48;54.79;100307.13;4913526;28;100407;-59
2020/12/10 10:19:56;;;;;;;22.73;17.63;;;6.20;99.90;;;6.59;54.60;100316.50;4907520;28;98298;-58
2020/12/10 10:22:21;;;;;;;22.53;16.97;;;6.30;99.90;;;6.82;54.80;100307.19;4878653;28;103139;-59